createdAt,value
2023-11-18T00:02:35.989Z,10.90
2023-11-18T00:06:33.830Z,10.60
2023-11-18T00:10:31.854Z,10.70
2023-11-18T00:14:29.826Z,11.00
2023-11-18T00:18:27.785Z,11.10
2023-11-18T00:22:25.918Z,11.00
2023-11-18T00:26:23.741Z,11.40
2023-11-18T00:30:23.845Z,10.80
2023-11-18T00:34:21.787Z,11.20
2023-11-18T00:38:19.749Z,11.00
2023-11-18T00:42:17.785Z,11.20
2023-11-18T00:46:15.815Z,10.90
2023-11-18T00:50:15.779Z,10.70
2023-11-18T00:54:13.863Z,10.40
2023-11-18T00:58:12.693Z,10.40
2023-11-18T01:02:12.763Z,10.60
2023-11-18T01:06:10.741Z,10.90
2023-11-18T01:10:08.724Z,11.50
2023-11-18T01:14:06.741Z,10.80
2023-11-18T01:18:04.745Z,10.80
2023-11-18T01:22:02.734Z,12.00
2023-11-18T01:26:00.799Z,11.00
2023-11-18T01:29:58.663Z,12.00
2023-11-18T01:33:57.764Z,12.30
2023-11-18T01:37:55.814Z,12.50
2023-11-18T01:41:53.665Z,10.80
2023-11-18T01:45:51.804Z,10.30
2023-11-18T01:49:52.718Z,11.00
2023-11-18T01:53:52.684Z,9.70
2023-11-18T01:57:51.672Z,11.40
2023-11-18T02:01:50.696Z,10.50
2023-11-18T02:05:49.658Z,10.70
2023-11-18T02:09:48.624Z,10.30
2023-11-18T02:13:50.678Z,9.60
2023-11-18T02:17:49.775Z,10.80
2023-11-18T02:21:47.608Z,10.50
2023-11-18T02:25:48.624Z,10.70
2023-11-18T02:29:49.693Z,11.40
2023-11-18T02:33:55.685Z,10.90
2023-11-18T02:37:59.741Z,11.40
2023-11-18T02:41:57.573Z,10.20
2023-11-18T02:45:56.624Z,10.10
2023-11-18T02:49:56.624Z,10.70
2023-11-18T02:53:54.585Z,9.70
2023-11-18T02:57:54.591Z,10.00
2023-11-18T03:01:52.631Z,8.60
2023-11-18T03:05:50.574Z,8.70
2023-11-18T03:09:48.584Z,8.70
2023-11-18T03:13:46.530Z,8.60
2023-11-18T03:17:44.613Z,8.90
2023-11-18T03:21:42.523Z,9.00
2023-11-18T03:25:40.588Z,8.60
2023-11-18T03:29:38.551Z,9.70
2023-11-18T03:33:36.551Z,8.10
2023-11-18T03:37:35.553Z,9.40
2023-11-18T03:41:33.593Z,8.40
2023-11-18T03:45:31.519Z,8.30
2023-11-18T03:49:29.522Z,8.30
2023-11-18T03:53:27.477Z,7.70
2023-11-18T03:57:25.533Z,8.50
2023-11-18T04:01:23.544Z,7.90
2023-11-18T04:05:22.514Z,9.70
2023-11-18T04:09:20.476Z,8.30
2023-11-18T04:13:18.467Z,8.90
2023-11-18T04:17:16.593Z,8.40
2023-11-18T04:21:15.502Z,8.00
2023-11-18T04:25:14.435Z,9.60
2023-11-18T04:29:14.505Z,8.50
2023-11-18T04:33:12.413Z,8.30
2023-11-18T04:37:10.466Z,7.70
2023-11-18T04:41:08.496Z,8.80
2023-11-18T04:45:06.617Z,8.10
2023-11-18T04:49:04.499Z,8.50
2023-11-18T04:53:02.443Z,8.20
2023-11-18T04:57:00.394Z,8.00
2023-11-18T05:00:58.419Z,9.30
2023-11-18T05:04:56.435Z,8.40
2023-11-18T05:08:54.481Z,8.10
2023-11-18T05:13:01.422Z,9.10
2023-11-18T05:16:59.496Z,8.30
2023-11-18T05:20:57.410Z,8.50
2023-11-18T05:24:55.417Z,7.90
2023-11-18T05:28:53.461Z,8.00
2023-11-18T05:32:51.424Z,8.30
2023-11-18T05:36:49.341Z,7.60
2023-11-18T05:40:50.426Z,8.80
2023-11-18T05:44:49.329Z,8.40
2023-11-18T05:48:47.349Z,8.90
2023-11-18T05:52:45.419Z,8.60
2023-11-18T05:56:43.351Z,9.20
2023-11-18T06:00:42.062Z,9.40
2023-11-18T06:04:40.346Z,9.40
2023-11-18T06:08:40.314Z,9.40
2023-11-18T06:12:39.347Z,9.10
2023-11-18T06:16:40.698Z,11.00
2023-11-18T06:20:40.389Z,11.40
2023-11-18T06:24:38.300Z,11.70
2023-11-18T06:28:36.303Z,9.50
2023-11-18T06:32:34.306Z,10.00
2023-11-18T06:36:34.308Z,10.30
2023-11-18T06:40:34.313Z,10.80
2023-11-18T06:44:32.318Z,10.00
2023-11-18T06:48:30.297Z,10.80
2023-11-18T06:52:29.274Z,11.80
2023-11-18T06:56:27.250Z,11.30
2023-11-18T07:00:25.246Z,10.80
2023-11-18T07:04:23.256Z,10.90
2023-11-18T07:08:21.305Z,11.70
2023-11-18T07:12:19.246Z,12.40
2023-11-18T07:16:17.301Z,12.50
2023-11-18T07:20:15.229Z,12.70
2023-11-18T07:24:13.494Z,13.10
2023-11-18T07:28:13.233Z,12.10
2023-11-18T07:32:13.323Z,11.00
2023-11-18T07:36:13.264Z,10.80
2023-11-18T07:40:12.221Z,10.50
2023-11-18T07:44:10.312Z,11.60
2023-11-18T07:48:08.349Z,12.20
2023-11-18T07:52:06.214Z,12.60
2023-11-18T07:56:04.265Z,11.20
2023-11-18T08:00:02.188Z,13.00
2023-11-18T08:04:04.260Z,14.00
2023-11-18T08:08:02.143Z,14.00
2023-11-18T08:12:03.163Z,11.40
2023-11-18T08:16:01.261Z,12.50
2023-11-18T08:19:59.171Z,13.20
2023-11-18T08:23:57.106Z,12.30
2023-11-18T08:27:56.186Z,11.80
2023-11-18T08:31:55.194Z,12.90
2023-11-18T08:35:54.129Z,12.40
2023-11-18T08:39:52.152Z,16.20
2023-11-18T08:43:50.197Z,14.10
2023-11-18T08:47:48.117Z,12.40
2023-11-18T08:51:46.131Z,13.70
2023-11-18T08:55:48.082Z,10.90
2023-11-18T08:59:46.167Z,11.90
2023-11-18T09:03:44.256Z,12.10
2023-11-18T09:07:42.168Z,13.50
2023-11-18T09:11:41.070Z,13.60
2023-11-18T09:15:39.091Z,12.90
2023-11-18T09:19:38.116Z,13.10
2023-11-18T09:23:39.150Z,11.40
2023-11-18T09:27:37.064Z,10.90
2023-11-18T09:31:35.191Z,11.30
2023-11-18T09:35:33.047Z,10.70
2023-11-18T09:39:45.055Z,11.70
2023-11-18T09:43:50.165Z,12.20
2023-11-18T09:47:55.097Z,13.00
2023-11-18T09:51:55.055Z,11.30
2023-11-18T09:56:08.067Z,12.70
2023-11-18T10:00:28.260Z,12.70
2023-11-18T10:04:28.091Z,11.30
2023-11-18T10:08:26.080Z,12.30
2023-11-18T10:12:32.044Z,11.60
2023-11-18T10:16:34.989Z,12.90
2023-11-18T10:20:36.083Z,12.00
2023-11-18T10:24:33.953Z,12.10
2023-11-18T10:28:40.018Z,12.70
2023-11-18T10:32:38.071Z,11.90
2023-11-18T10:36:41.038Z,11.90
2023-11-18T10:40:38.953Z,12.50
2023-11-18T10:44:37.041Z,13.40
2023-11-18T10:48:34.945Z,13.10
2023-11-18T10:52:33.966Z,13.00
2023-11-18T10:56:38.929Z,13.60
2023-11-18T11:00:40.975Z,13.60
2023-11-18T11:04:38.928Z,13.60
2023-11-18T11:12:37.913Z,13.60
2023-11-18T11:16:40.937Z,15.50
2023-11-18T11:20:40.924Z,14.90
2023-11-18T11:24:57.000Z,14.60
2023-11-18T11:29:21.272Z,13.50
2023-11-18T11:33:30.892Z,14.10
2023-11-18T11:37:31.030Z,13.60
2023-11-18T11:41:33.970Z,14.50
2023-11-18T11:45:35.899Z,13.10
2023-11-18T11:49:37.858Z,14.40
2023-11-18T11:53:40.971Z,15.10
2023-11-18T11:57:40.875Z,12.70
2023-11-18T12:01:42.866Z,14.10
2023-11-18T12:05:41.906Z,13.90
2023-11-18T12:09:46.897Z,13.50
2023-11-18T12:13:46.915Z,12.30
2023-11-18T12:17:45.872Z,12.10
2023-11-18T12:22:09.830Z,12.10
2023-11-18T12:26:10.867Z,13.90
2023-11-18T12:30:08.827Z,12.10
2023-11-18T12:34:07.791Z,13.90
2023-11-18T12:38:42.829Z,13.70
2023-11-18T12:43:14.984Z,13.60
2023-11-18T12:47:25.893Z,12.70
2023-11-18T12:51:27.814Z,14.70
2023-11-18T12:55:28.800Z,15.70
2023-11-18T12:59:26.831Z,17.70
2023-11-18T13:03:25.901Z,18.70
2023-11-18T13:07:24.757Z,17.50
2023-11-18T13:11:23.836Z,19.60
2023-11-18T13:15:23.803Z,19.70
2023-11-18T13:19:21.765Z,20.30
2023-11-18T13:23:19.798Z,18.60
2023-11-18T13:27:17.878Z,18.90
2023-11-18T13:31:17.823Z,18.80
2023-11-18T13:35:17.839Z,21.00
2023-11-18T13:39:16.741Z,22.00
2023-11-18T13:43:18.742Z,23.00
2023-11-18T13:47:19.786Z,21.90
2023-11-18T13:51:20.742Z,22.40
2023-11-18T13:55:22.718Z,23.40
2023-11-18T13:59:20.793Z,19.60
2023-11-18T14:03:19.840Z,20.70
2023-11-18T14:07:19.689Z,19.60
2023-11-18T14:11:18.231Z,19.60
2023-11-18T14:15:17.712Z,19.20
2023-11-18T14:19:15.714Z,20.70
2023-11-18T14:23:13.719Z,20.50
2023-11-18T14:27:12.678Z,23.20
2023-11-18T14:31:11.784Z,22.90
2023-11-18T14:35:09.704Z,22.90
2023-11-18T14:39:07.736Z,20.70
2023-11-18T14:43:05.682Z,23.70
2023-11-18T14:47:03.792Z,23.00
2023-11-18T14:51:02.715Z,23.80
2023-11-18T14:55:00.628Z,22.90
2023-11-18T14:58:58.678Z,24.60
2023-11-18T15:02:59.374Z,23.80
2023-11-18T15:07:00.616Z,26.60
2023-11-18T15:10:58.620Z,25.80
2023-11-18T15:14:56.623Z,28.70
2023-11-18T15:18:55.657Z,26.10
2023-11-18T15:22:53.683Z,26.90
2023-11-18T15:26:52.377Z,25.70
2023-11-18T15:30:51.751Z,27.80
2023-11-18T15:34:49.649Z,25.30
2023-11-18T15:38:47.710Z,27.30
2023-11-18T15:42:45.579Z,25.90
2023-11-18T15:46:45.599Z,23.70
2023-11-18T15:50:45.570Z,22.40
2023-11-18T15:54:44.560Z,23.80
2023-11-18T15:58:43.582Z,23.50
2023-11-18T16:02:41.566Z,24.10
2023-11-18T16:06:39.571Z,25.90
2023-11-18T16:10:39.652Z,27.70
2023-11-18T16:14:37.695Z,27.60
2023-11-18T16:18:35.548Z,29.30
2023-11-18T16:22:33.516Z,28.00
2023-11-18T16:26:31.570Z,27.50
2023-11-18T16:30:32.593Z,26.30
2023-11-18T16:34:30.510Z,29.10
2023-11-18T16:38:28.626Z,27.30
2023-11-18T16:42:27.461Z,25.60
2023-11-18T16:46:26.567Z,27.50
2023-11-18T16:50:27.750Z,27.90
2023-11-18T16:54:36.044Z,26.70
2023-11-18T16:58:38.500Z,29.40
2023-11-18T17:02:36.607Z,28.80
2023-11-18T17:06:34.447Z,27.40
2023-11-18T17:10:32.489Z,27.00
2023-11-18T17:14:30.475Z,29.70
2023-11-18T17:18:28.543Z,28.70
2023-11-18T17:22:26.469Z,29.70
2023-11-18T17:26:24.463Z,29.10
2023-11-18T17:30:23.563Z,29.50
2023-11-18T17:34:21.444Z,28.40
2023-11-18T17:38:19.444Z,28.50
2023-11-18T17:42:17.471Z,26.20
2023-11-18T17:46:18.433Z,24.30
2023-11-18T17:50:20.461Z,26.50
2023-11-18T17:54:18.420Z,24.30
2023-11-18T17:58:18.390Z,23.70
2023-11-18T18:02:19.408Z,20.90
2023-11-18T18:06:17.377Z,21.10
2023-11-18T18:10:16.347Z,19.80
2023-11-18T18:14:15.379Z,18.90
2023-11-18T18:18:13.397Z,20.50
2023-11-18T18:22:11.366Z,18.30
2023-11-18T18:26:09.335Z,19.80
2023-11-18T18:30:07.377Z,22.10
2023-11-18T18:34:05.340Z,22.00
2023-11-18T18:38:03.396Z,23.40
2023-11-18T18:42:01.328Z,22.90
2023-11-18T18:45:59.465Z,21.30
2023-11-18T18:49:57.340Z,20.30
2023-11-18T18:53:55.365Z,20.80
2023-11-18T18:57:53.344Z,21.80
2023-11-18T19:01:52.358Z,20.40
2023-11-18T19:05:50.271Z,21.00
2023-11-18T19:09:49.327Z,24.20
2023-11-18T19:13:47.278Z,22.80
2023-11-18T19:17:45.435Z,24.20
2023-11-18T19:21:43.250Z,25.60
2023-11-18T19:25:41.294Z,25.90
2023-11-18T19:29:41.404Z,24.60
2023-11-18T19:33:40.269Z,25.90
2023-11-18T19:37:38.249Z,25.50
2023-11-18T19:41:36.331Z,25.50
2023-11-18T19:45:34.352Z,27.50
2023-11-18T19:49:33.298Z,27.80
2023-11-18T19:53:31.265Z,29.10
2023-11-18T19:57:29.249Z,29.30
2023-11-18T20:01:30.250Z,26.90
2023-11-18T20:05:28.259Z,25.30
2023-11-18T20:09:26.186Z,23.80
2023-11-18T20:13:24.242Z,24.30
2023-11-18T20:17:22.227Z,26.50
2023-11-18T20:21:20.253Z,30.40
2023-11-18T20:25:18.219Z,29.70
2023-11-18T20:29:16.248Z,28.80
2023-11-18T20:33:14.264Z,28.10
2023-11-18T20:37:13.205Z,28.50
2023-11-18T20:41:11.231Z,25.90
2023-11-18T20:45:09.210Z,23.10
2023-11-18T20:49:07.139Z,20.20
2023-11-18T20:53:05.658Z,22.10
2023-11-18T20:57:03.170Z,21.10
2023-11-18T21:01:07.811Z,22.00
2023-11-18T21:05:06.915Z,24.30
2023-11-18T21:09:05.119Z,22.20
2023-11-18T21:13:03.130Z,23.80
2023-11-18T21:17:08.469Z,21.20
2023-11-18T21:21:07.134Z,22.00
2023-11-18T21:25:05.115Z,24.30
2023-11-18T21:29:03.128Z,24.00
2023-11-18T21:33:03.235Z,24.20
2023-11-18T21:37:01.090Z,25.40
2023-11-18T21:40:59.125Z,24.50
2023-11-18T21:44:57.108Z,26.60
2023-11-18T21:48:55.134Z,26.00
2023-11-18T21:52:53.106Z,23.80
2023-11-18T21:56:51.182Z,25.60
2023-11-18T22:00:49.065Z,26.00
2023-11-18T22:04:47.091Z,26.70
2023-11-18T22:08:45.129Z,27.50
2023-11-18T22:12:43.052Z,26.80
2023-11-18T22:16:41.125Z,26.30
2023-11-18T22:20:39.150Z,27.60
2023-11-18T22:24:37.170Z,27.60
2023-11-18T22:28:39.058Z,26.50
2023-11-18T22:32:37.063Z,26.90
2023-11-18T22:36:35.093Z,29.20
2023-11-18T22:40:34.001Z,28.40
2023-11-18T22:44:35.435Z,30.40
2023-11-18T22:48:34.013Z,30.50
2023-11-18T22:52:33.012Z,28.70
2023-11-18T22:56:31.048Z,27.30
2023-11-18T23:00:45.084Z,30.50
2023-11-18T23:04:42.986Z,30.40
2023-11-18T23:08:50.995Z,29.40
2023-11-18T23:12:48.940Z,30.20
2023-11-18T23:16:47.011Z,28.70
2023-11-18T23:20:45.950Z,28.50
2023-11-18T23:24:44.971Z,29.70
2023-11-18T23:28:42.954Z,27.00
2023-11-18T23:32:41.008Z,26.70
2023-11-18T23:36:39.004Z,28.30
2023-11-18T23:40:37.003Z,32.10
2023-11-18T23:44:35.964Z,29.90
2023-11-18T23:48:33.955Z,30.50
2023-11-18T23:52:31.900Z,33.60
2023-11-18T23:56:29.940Z,37.30
